Time;durP1;ratioP1;P1;durP2;ratioP2;P2;SDS_P1;SDS_P2;PMS_P1;PMS_P2;Temp;Humidity;BMP_temperature;BMP_pressure;BME280_temperature;BME280_humidity;BME280_pressure;Samples;Min_cycle;Max_cycle;Signal;HPM_P1;HPM_P2
2023/12/27 00:15:45;;;;;;;2.60;1.40;;;;;;;6.25;46.61;95515.34;6200235;23;20040;-86
2023/12/27 00:23:12;;;;;;;3.90;1.23;;;;;;;6.20;46.45;95519.31;6182010;23;20024;-86
2023/12/27 00:25:37;;;;;;;3.15;1.35;;;;;;;5.92;47.70;95518.44;6134059;23;20009;-86
2023/12/27 00:28:03;;;;;;;2.03;1.20;;;;;;;6.25;46.84;95517.94;6157544;23;20023;-85
2023/12/27 00:30:31;;;;;;;1.85;1.23;;;;;;;5.70;48.00;95509.28;6133909;23;20080;-86
2023/12/27 00:41:46;;;;;;;4.07;2.00;;;;;;;6.14;50.40;95512.16;6148986;23;20029;-86
2023/12/27 00:44:15;;;;;;;3.20;2.15;;;;;;;6.16;50.54;95505.06;6157015;23;20020;-86
2023/12/27 00:46:41;;;;;;;2.75;1.77;;;;;;;6.00;49.56;95508.28;6158153;23;20009;-86
2023/12/27 00:49:09;;;;;;;2.38;1.35;;;;;;;5.93;47.95;95489.09;6157945;23;20009;-86
2023/12/27 01:06:55;;;;;;;2.00;1.00;;;;;;;6.53;42.95;95499.03;6189533;23;20024;-85
2023/12/27 01:09:21;;;;;;;1.30;1.10;;;;;;;6.80;41.90;95487.84;6162760;23;20009;-85
2023/12/27 01:11:46;;;;;;;2.47;1.00;;;;;;;6.99;41.55;95510.97;6137629;23;20005;-85
2023/12/27 01:14:16;;;;;;;1.13;1.02;;;;;;;6.85;43.26;95514.03;6137988;23;20031;-85
2023/12/27 01:24:19;;;;;;;2.15;1.20;;;;;;;6.68;43.70;95489.00;6180051;23;20013;-87
2023/12/27 01:29:20;;;;;;;2.45;1.08;;;;;;;6.81;44.28;95486.88;6182860;23;20029;-86
2023/12/27 01:31:45;;;;;;;1.75;1.13;;;;;;;6.64;44.48;95478.13;6133362;23;20016;-86
2023/12/27 01:34:13;;;;;;;1.67;1.17;;;;;;;6.06;46.14;95481.88;6131434;23;20005;-85
2023/12/27 01:36:39;;;;;;;2.17;1.10;;;;;;;6.15;44.99;95477.59;6130841;23;20044;-86
2023/12/27 01:57:14;;;;;;;1.35;0.90;;;;;;;6.57;41.33;95465.00;6183299;23;20048;-85
2023/12/27 01:59:41;;;;;;;2.60;1.00;;;;;;;6.75;40.93;95472.75;6159665;23;20015;-85
2023/12/27 02:02:07;;;;;;;1.33;0.70;;;;;;;6.98;40.19;95480.88;6135417;23;20004;-86
2023/12/27 02:07:11;;;;;;;1.33;0.82;;;;;;;6.69;41.07;95467.38;6182327;23;20009;-86
2023/12/27 02:09:38;;;;;;;1.13;0.80;;;;;;;6.93;41.30;95464.19;6159218;23;20028;-86
2023/12/27 03:15:54;;;;;;;1.60;0.90;;;;;;;6.75;43.12;95446.09;6186107;22;20029;-86
2023/12/27 03:18:20;;;;;;;1.40;0.85;;;;;;;6.58;43.81;95438.19;6138812;23;20020;-86
2023/12/27 03:20:45;;;;;;;2.55;1.30;;;;;;;6.41;45.26;95423.50;6188863;23;20039;-86
2023/12/27 03:23:11;;;;;;;2.67;1.70;;;;;;;6.42;47.42;95433.69;6163751;23;20012;-86
2023/12/27 04:21:03;;;;;;;3.90;2.00;;;;;;;5.78;52.77;95414.69;6212432;23;20025;-85
2023/12/27 04:23:29;;;;;;;2.92;2.22;;;;;;;5.88;52.66;95412.91;6187710;23;20005;-86
2023/12/27 04:25:55;;;;;;;3.15;2.17;;;;;;;5.66;52.98;95395.22;6162928;23;20005;-86
2023/12/27 04:28:21;;;;;;;4.13;2.15;;;;;;;6.03;51.64;95405.50;6163571;23;20013;-85
2023/12/27 04:30:46;;;;;;;3.03;1.95;;;;;;;6.13;51.55;95413.22;6138918;23;20004;-86
2023/12/27 04:56:29;;;;;;;3.05;1.60;;;;;;;6.01;50.14;95416.94;6233769;22;20012;-85
2023/12/27 04:58:54;;;;;;;2.72;1.60;;;;;;;5.96;49.15;95413.97;6191872;23;20016;-85
2023/12/27 05:21:57;;;;;;;2.25;1.00;;;;;;;5.76;46.51;95405.50;6212612;22;20024;-85
2023/12/27 06:08:12;;;;;;;1.98;1.00;;;;;;;5.14;47.47;95407.72;6204654;23;20028;-86
2023/12/27 06:10:39;;;;;;;1.80;1.15;;;;;;;5.07;48.08;95390.25;6164828;23;20032;-85
2023/12/27 06:13:07;;;;;;;3.03;1.50;;;;;;;5.17;49.33;95385.06;6189255;23;20001;-85
2023/12/27 06:15:32;;;;;;;2.03;1.42;;;;;;;5.10;50.18;95386.56;6189227;23;20011;-85
2023/12/27 06:17:57;;;;;;;2.13;1.42;;;;;;;5.23;50.21;95388.84;6164500;23;20050;-85
2023/12/27 06:20:26;;;;;;;1.80;1.20;;;;;;;5.41;48.59;95384.59;6139926;23;20016;-85
2023/12/27 06:22:52;;;;;;;3.28;1.50;;;;;;;5.62;48.67;95406.78;6140538;23;20008;-85
2023/12/27 06:37:06;;;;;;;1.38;1.00;;;;;;;5.60;47.24;95408.69;6182007;23;20021;-86
2023/12/27 06:39:32;;;;;;;2.92;0.70;;;;;;;5.65;47.16;95417.63;6159171;23;20074;-85
2023/12/27 07:15:29;;;;;;;1.40;1.02;;;;;;;5.96;46.95;95424.28;6187644;23;20044;-86
2023/12/27 07:17:54;;;;;;;1.88;1.20;;;;;;;5.83;46.98;95425.41;6188160;23;20066;-85
2023/12/27 07:25:21;;;;;;;2.20;1.30;;;;;;;6.11;47.09;95433.22;6184415;23;20037;-85
2023/12/27 07:27:49;;;;;;;1.42;1.17;;;;;;;6.18;46.63;95420.50;6158352;23;20005;-85
2023/12/27 07:30:15;;;;;;;2.85;1.38;;;;;;;6.31;46.74;95438.25;6158652;23;20005;-84
2023/12/27 07:32:40;;;;;;;1.00;0.90;;;;;;;6.16;46.51;95415.50;6158480;23;20021;-85
2023/12/27 07:47:52;;;;;;;2.72;1.20;;;;;;;6.65;43.57;95431.47;6183716;23;20048;-86
2023/12/27 07:50:17;;;;;;;1.95;1.17;;;;;;;6.80;43.31;95420.63;6133986;23;20013;-85
2023/12/27 07:52:42;;;;;;;2.17;1.20;;;;;;;6.71;43.60;95431.84;6133509;23;20022;-85
2023/12/27 07:55:08;;;;;;;1.17;0.90;;;;;;;6.92;42.46;95434.94;6134019;23;20041;-85
2023/12/27 08:24:09;;;;;;;7.25;4.38;;;;;;;13.39;32.97;95434.97;6206044;23;20027;-86
2023/12/27 08:26:36;;;;;;;4.00;2.20;;;;;;;13.85;31.82;95423.22;6216877;23;20016;-85
2023/12/27 08:34:02;;;;;;;2.58;1.85;;;;;;;15.66;29.45;95412.13;6207310;22;20338;-85
2023/12/27 08:36:32;;;;;;;3.47;1.90;;;;;;;15.85;28.72;95417.56;6186365;23;20087;-85
2023/12/27 08:39:01;;;;;;;3.30;2.53;;;;;;;15.64;29.13;95414.94;6161916;23;20019;-84
2023/12/27 08:41:26;;;;;;;3.17;2.55;;;;;;;15.87;29.67;95428.66;6161909;23;20028;-86
2023/12/27 09:35:37;;;;;;;3.47;1.80;;;;;;;18.00;28.72;95416.84;6180681;23;20025;-85
2023/12/27 09:38:03;;;;;;;1.95;1.67;;;;;;;17.85;29.73;95421.66;6131581;23;20021;-84
2023/12/27 09:40:30;;;;;;;2.58;1.80;;;;;;;17.50;29.33;95417.72;6130756;23;20009;-85
2023/12/27 09:48:10;;;;;;;1.95;1.50;;;;;;;17.35;28.96;95417.25;6187392;23;20098;-84
2023/12/27 09:50:43;;;;;;;;;;;;;;;16.13;30.33;95425.19;6185416;23;20016;-85
2023/12/27 09:53:12;;;;;;;1.95;1.35;;;;;;;16.49;30.44;95421.19;6185493;23;19930;-85
2023/12/27 11:00:12;;;;;;;4.32;2.30;;;;;;;13.25;37.66;95337.41;6211100;23;20032;-85
2023/12/27 11:02:38;;;;;;;3.53;2.13;;;;;;;13.28;38.50;95334.38;6162123;23;20059;-85
2023/12/27 11:05:06;;;;;;;3.42;2.20;;;;;;;13.41;38.06;95325.84;6162287;23;20028;-85
2023/12/27 11:07:40;;;;;;;3.67;2.25;;;;;;;13.44;36.89;95327.28;6162327;23;20013;-85
2023/12/27 11:10:07;;;;;;;4.38;2.80;;;;;;;13.55;38.66;95326.72;6163048;23;20008;-85
2023/12/27 11:12:35;;;;;;;5.22;2.92;;;;;;;13.44;39.20;95324.66;6161977;23;20004;-85
2023/12/27 11:15:03;;;;;;;4.80;3.10;;;;;;;13.36;38.84;95319.59;6186767;23;20004;-85
2023/12/27 11:17:33;;;;;;;5.07;3.30;;;;;;;13.55;38.25;95316.28;6161777;23;20008;-86
2023/12/27 11:22:23;;;;;;;6.67;4.07;;;;;;;13.72;38.02;95315.97;6210701;23;20029;-85
2023/12/27 11:24:49;;;;;;;6.20;3.63;;;;;;;13.26;37.68;95301.63;6161422;23;20264;-85
2023/12/27 11:27:19;;;;;;;5.95;4.15;;;;;;;13.56;38.37;95304.84;6186646;23;20008;-85
2023/12/27 11:29:47;;;;;;;6.10;3.85;;;;;;;13.43;38.46;95289.91;6162108;23;20016;-85
2023/12/27 11:32:15;;;;;;;7.90;4.03;;;;;;;13.26;40.04;95285.97;6186509;23;20004;-85
2023/12/27 11:34:41;;;;;;;6.53;3.30;;;;;;;13.51;38.14;95286.31;6211909;23;20020;-85
2023/12/27 11:37:07;;;;;;;5.43;3.53;;;;;;;13.67;37.60;95283.38;6186525;23;20005;-85
2023/12/27 11:39:32;;;;;;;6.47;4.40;;;;;;;13.48;38.58;95278.88;6211424;23;20083;-85
2023/12/27 11:44:39;;;;;;;6.47;3.67;;;;;;;13.52;37.38;95264.44;6210705;23;20021;-86
2023/12/27 11:47:09;;;;;;;6.85;4.05;;;;;;;13.72;37.39;95263.69;6185941;23;20004;-85
2023/12/27 11:49:35;;;;;;;5.25;3.70;;;;;;;13.52;38.10;95251.34;6186169;23;20032;-85
2023/12/27 11:52:00;;;;;;;4.72;3.20;;;;;;;14.00;37.34;95253.13;6187148;23;20019;-85
2023/12/27 11:59:20;;;;;;;3.67;2.72;;;;;;;13.74;38.10;95243.38;6171098;23;20024;-87
2023/12/27 12:01:49;;;;;;;5.45;2.92;;;;;;;13.86;37.17;95241.81;6187202;23;20040;-85
2023/12/27 12:04:38;;;;;;;5.10;2.80;;;;;;;13.72;36.90;95245.38;6186830;23;20020;-85
2023/12/27 12:07:29;;;;;;;5.78;2.58;;;;;;;13.62;36.87;95240.53;6185385;23;20004;-85
2023/12/27 12:27:51;;;;;;;3.60;2.00;;;;;;;13.65;36.43;95195.69;6212043;23;20020;-85
2023/12/27 12:30:16;;;;;;;2.88;2.25;;;;;;;13.85;37.73;95195.75;6186895;23;20007;-84
2023/12/27 12:32:42;;;;;;;3.47;2.30;;;;;;;13.89;36.68;95194.34;6186918;23;20032;-84
2023/12/27 12:35:10;;;;;;;4.55;2.40;;;;;;;13.60;36.34;95190.28;6187014;23;20079;-84
2023/12/27 12:40:01;;;;;;;3.38;1.90;;;;;;;13.21;36.92;95178.63;6183376;23;20009;-85
2023/12/27 12:42:26;;;;;;;3.33;2.15;;;;;;;12.85;37.56;95172.66;6166894;23;20012;-85
2023/12/27 12:44:55;;;;;;;5.20;2.05;;;;;;;12.68;37.03;95172.16;6167899;23;20012;-85
2023/12/27 12:47:21;;;;;;;3.30;2.17;;;;;;;12.69;37.26;95173.75;6166842;23;20011;-85
2023/12/27 12:49:53;;;;;;;3.45;2.22;;;;;;;12.71;38.18;95165.75;6190764;23;20054;-85
2023/12/27 12:52:18;;;;;;;3.25;2.35;;;;;;;12.93;37.69;95163.88;6216892;23;20004;-86
2023/12/27 12:54:47;;;;;;;3.63;2.40;;;;;;;12.69;37.93;95152.06;6191976;23;20043;-85
2023/12/27 12:59:42;;;;;;;3.13;2.30;;;;;;;12.47;38.33;95149.56;6210339;23;20021;-85
2023/12/27 13:02:07;;;;;;;3.05;2.22;;;;;;;12.76;38.67;95146.91;6211575;23;20035;-85
2023/12/27 13:04:33;;;;;;;3.00;2.30;;;;;;;12.95;38.24;95130.53;6186354;23;20009;-85
2023/12/27 13:07:00;;;;;;;3.88;2.47;;;;;;;12.85;38.40;95145.72;6191548;23;20087;-85
2023/12/27 13:09:26;;;;;;;4.50;2.55;;;;;;;13.04;38.23;95126.75;6216757;23;20015;-84
2023/12/27 13:11:51;;;;;;;3.10;2.40;;;;;;;12.87;38.84;95122.84;6216490;23;20049;-85
2023/12/27 13:14:20;;;;;;;4.03;2.53;;;;;;;13.10;38.44;95130.41;6191649;23;20012;-85
2023/12/27 13:16:45;;;;;;;3.38;2.40;;;;;;;12.98;38.49;95129.31;6167404;23;20031;-86
2023/12/27 13:19:11;;;;;;;5.13;2.67;;;;;;;12.83;37.87;95121.63;6191486;23;20004;-85
2023/12/27 13:21:36;;;;;;;2.28;2.08;;;;;;;12.89;37.92;95116.44;6191697;23;20008;-85
2023/12/27 13:24:05;;;;;;;3.53;2.58;;;;;;;13.43;37.56;95122.69;6191761;23;20016;-85
2023/12/27 13:26:30;;;;;;;3.83;2.60;;;;;;;13.29;37.29;95110.56;6191367;23;20005;-85
2023/12/27 13:28:56;;;;;;;4.00;2.33;;;;;;;13.51;37.63;95110.44;6191478;23;20099;-86
2023/12/27 13:31:22;;;;;;;3.38;2.63;;;;;;;13.59;37.22;95097.19;6166693;23;20012;-86
2023/12/27 13:33:47;;;;;;;3.08;2.50;;;;;;;13.59;37.33;95095.38;6191537;23;20024;-86
2023/12/27 13:36:13;;;;;;;3.67;2.70;;;;;;;13.87;36.38;95108.28;6216577;23;20095;-85
2023/12/27 13:38:38;;;;;;;3.50;2.40;;;;;;;13.65;37.82;95104.22;6191297;23;20012;-85
2023/12/27 13:41:04;;;;;;;3.22;2.60;;;;;;;13.80;37.24;95094.41;6191500;23;20021;-85
2023/12/27 13:43:30;;;;;;;5.43;2.95;;;;;;;13.68;37.82;95096.78;6217847;23;20000;-85
2023/12/27 13:45:55;;;;;;;4.32;2.90;;;;;;;13.67;37.57;95089.97;6218220;23;20004;-85
2023/12/27 13:48:21;;;;;;;3.88;2.95;;;;;;;13.79;37.56;95092.00;6193573;23;20059;-85
2023/12/27 13:50:48;;;;;;;3.63;2.83;;;;;;;13.70;36.52;95091.38;6193549;23;20022;-85
2023/12/27 13:53:13;;;;;;;3.85;3.20;;;;;;;13.44;37.92;95087.72;6193044;23;20012;-85
2023/12/27 13:55:40;;;;;;;5.63;3.42;;;;;;;13.36;38.28;95094.94;6192744;23;20007;-86
2023/12/27 13:58:06;;;;;;;4.43;2.88;;;;;;;13.17;38.15;95081.59;6168368;23;20027;-85
2023/12/27 14:00:31;;;;;;;3.58;2.90;;;;;;;12.70;38.75;95075.41;6193134;23;20020;-86
2023/12/27 14:02:59;;;;;;;4.72;3.30;;;;;;;12.92;38.59;95083.94;6193929;23;20070;-86
2023/12/27 14:05:24;;;;;;;5.40;3.42;;;;;;;12.66;39.22;95084.59;6193687;23;20028;-85
2023/12/27 14:10:25;;;;;;;4.32;3.20;;;;;;;12.32;39.98;95083.66;6214809;22;20020;-85
2023/12/27 14:12:52;;;;;;;4.22;2.97;;;;;;;12.40;39.72;95095.72;6168675;23;20018;-85
2023/12/27 14:15:17;;;;;;;4.13;3.03;;;;;;;12.45;39.61;95090.72;6193399;23;20091;-86
